PWSweather.com
Personal Weather Stations
Station Observations
TAMWORTH
TamworthGB

TamworthGB

Lat: 52.64844, Lon: -1.68986

Elevation: 275

Station Type: Davis 6162C Vantage Pro2 Plus with daytime FARS permanently connected to a dedicated HP Mini 110-4116sa series netbook computer

http://tamworthweather.com

Latest ConditionsUpdated 2:50:02 PM GMT Thursday, Nov 14, 2019
Currently Today's Max Today's Min Today's Average
Temperature 38.3°F3.5°C 42.3°F5.7°C 38.1°F3.4°C 41.0°F5.0°C
Dew Point 36.5°F2.5°C 40.4°F4.7°C 36.3°F2.4°C 38.8°F3.8°C
Winds 10.0 mph NE16.1 kmh NE 14.0 mph -22.5 kmh - - 10.1 mph 16.3 kmh
Wind Gusts 20.0 mph32.2 kmh 29.0 mph46.7 kmh - -
Humidity 93% 94% 88% 92%
Pressure 29.48 in998.3 mb 29.48 in998.3 mb 29.23 in989.8 mb -
Precipitation - 0.93 in23.6 mm - -
Hour Temp Dew Point Humidity Winds Wind Gusts Pressure Precip Precip Rate Daily Precip Total
02:50 PM 38.3°F3.5°C 36.5°F2.5°C 93% 10.0 mph NE16.1 kmh NE 20.0 mph32.2 kmh 29.48 in998.3 mb 0.19 in4.8 mm 0.00 in0.0 mm 0.93 in23.6 mm
02:40 PM 38.1°F3.4°C 36.3°F2.4°C 93% 11.0 mph NE17.7 kmh NE 26.0 mph41.8 kmh 29.48 in998.3 mb 0.20 in5.1 mm 0.00 in0.0 mm 0.90 in22.9 mm
02:30 PM 38.3°F3.5°C 36.5°F2.5°C 93% 9.0 mph NE14.5 kmh NE 22.0 mph35.4 kmh 29.48 in998.3 mb 0.20 in5.1 mm 0.00 in0.0 mm 0.87 in22.1 mm
02:20 PM 38.7°F3.7°C 36.8°F2.7°C 93% 10.0 mph NE16.1 kmh NE 19.0 mph30.6 kmh 29.47 in998.0 mb 0.20 in5.1 mm 0.06 in1.5 mm 0.84 in21.3 mm
02:10 PM 38.7°F3.7°C 36.8°F2.7°C 93% 11.0 mph NE17.7 kmh NE 22.0 mph35.4 kmh 29.47 in998.0 mb 0.19 in4.8 mm 0.12 in3.0 mm 0.80 in20.3 mm
02:00 PM 38.8°F3.8°C 37.0°F2.8°C 93% 11.0 mph NE17.7 kmh NE 24.0 mph38.6 kmh 29.46 in997.6 mb 0.17 in4.3 mm 0.00 in0.0 mm 0.76 in19.3 mm
01:50 PM 39.6°F4.2°C 37.7°F3.2°C 93% 10.0 mph NE16.1 kmh NE 18.0 mph29.0 kmh 29.46 in997.6 mb 0.19 in4.8 mm 0.00 in0.0 mm 0.73 in18.5 mm
01:40 PM 39.6°F4.2°C 38.0°F3.3°C 94% 11.0 mph NE17.7 kmh NE 19.0 mph30.6 kmh 29.45 in997.3 mb 0.20 in5.1 mm 0.00 in0.0 mm 0.69 in17.5 mm
01:30 PM 39.4°F4.1°C 37.5°F3.1°C 93% 11.0 mph NE17.7 kmh NE 23.0 mph37.0 kmh 29.45 in997.3 mb 0.22 in5.6 mm 0.06 in1.5 mm 0.67 in17.0 mm
01:20 PM 39.4°F4.1°C 37.5°F3.1°C 93% 12.0 mph NE19.3 kmh NE 23.0 mph37.0 kmh 29.44 in997.0 mb 0.21 in5.3 mm 0.00 in0.0 mm 0.64 in16.3 mm
01:10 PM 39.2°F4.0°C 37.3°F2.9°C 93% 13.0 mph NE20.9 kmh NE 26.0 mph41.8 kmh 29.44 in997.0 mb 0.24 in6.1 mm 0.00 in0.0 mm 0.61 in15.5 mm
01:00 PM 39.0°F3.9°C 37.2°F2.9°C 93% 12.0 mph NE19.3 kmh NE 25.0 mph40.2 kmh 29.44 in997.0 mb 0.25 in6.4 mm 0.00 in0.0 mm 0.58 in14.7 mm
12:50 PM 39.2°F4.0°C 37.3°F2.9°C 93% 12.0 mph NE19.3 kmh NE 21.0 mph33.8 kmh 29.43 in996.6 mb 0.25 in6.4 mm 0.06 in1.5 mm 0.54 in13.7 mm
12:40 PM 39.4°F4.1°C 37.5°F3.1°C 93% 12.0 mph NE19.3 kmh NE 26.0 mph41.8 kmh 29.43 in996.6 mb 0.24 in6.1 mm 0.12 in3.0 mm 0.50 in12.7 mm
12:30 PM 39.4°F4.1°C 37.5°F3.1°C 93% 11.0 mph NE17.7 kmh NE 22.0 mph35.4 kmh 29.43 in996.6 mb 0.22 in5.6 mm 0.00 in0.0 mm 0.45 in11.4 mm
12:20 PM 39.4°F4.1°C 37.5°F3.1°C 93% 14.0 mph NE22.5 kmh NE 23.0 mph37.0 kmh 29.43 in996.6 mb 0.24 in6.1 mm 0.06 in1.5 mm 0.42 in10.7 mm
12:10 PM 40.1°F4.5°C 38.2°F3.4°C 93% 11.0 mph NE17.7 kmh NE 27.0 mph43.5 kmh 29.43 in996.6 mb 0.23 in5.8 mm 0.12 in3.0 mm 0.37 in9.4 mm
12:00 PM 41.4°F5.2°C 39.5°F4.2°C 93% 11.0 mph NE17.7 kmh NE 26.0 mph41.8 kmh 29.42 in996.3 mb 0.21 in5.3 mm 0.00 in0.0 mm 0.33 in8.4 mm
11:50 AM 41.2°F5.1°C 39.3°F4.1°C 93% 12.0 mph NE19.3 kmh NE 24.0 mph38.6 kmh 29.41 in995.9 mb 0.21 in5.3 mm 0.06 in1.5 mm 0.29 in7.4 mm
11:40 AM 41.4°F5.2°C 39.5°F4.2°C 93% 9.0 mph NE14.5 kmh NE 29.0 mph46.7 kmh 29.41 in995.9 mb 0.20 in5.1 mm 0.18 in4.6 mm 0.26 in6.6 mm
11:30 AM 41.7°F5.4°C 39.8°F4.3°C 93% 10.0 mph NE16.1 kmh NE 20.0 mph32.2 kmh 29.41 in995.9 mb 0.17 in4.3 mm 0.24 in6.1 mm 0.23 in5.8 mm
11:20 AM 41.7°F5.4°C 39.8°F4.3°C 93% 11.0 mph NE17.7 kmh NE 23.0 mph37.0 kmh 29.40 in995.6 mb 0.13 in3.3 mm 0.24 in6.1 mm 0.18 in4.6 mm
11:10 AM 41.7°F5.4°C 39.8°F4.3°C 93% 10.0 mph NE16.1 kmh NE 22.0 mph35.4 kmh 29.40 in995.6 mb 0.09 in2.3 mm 0.18 in4.6 mm 0.14 in3.6 mm
11:00 AM 41.9°F5.5°C 40.0°F4.4°C 93% 9.0 mph NE14.5 kmh NE 21.0 mph33.8 kmh 29.40 in995.6 mb 0.06 in1.5 mm 0.05 in1.3 mm 0.11 in2.8 mm
10:50 AM 42.1°F5.6°C 40.2°F4.6°C 93% 11.0 mph NNE17.7 kmh NNE 23.0 mph37.0 kmh 29.40 in995.6 mb 0.02 in0.5 mm 0.00 in0.0 mm 0.07 in1.8 mm
10:40 AM 42.3°F5.7°C 40.4°F4.7°C 93% 11.0 mph NNE17.7 kmh NNE 20.0 mph32.2 kmh 29.39 in995.3 mb 0.02 in0.5 mm 0.00 in0.0 mm 0.06 in1.5 mm
10:30 AM 42.3°F5.7°C 40.4°F4.7°C 93% 11.0 mph NNE17.7 kmh NNE 22.0 mph35.4 kmh 29.39 in995.3 mb 0.02 in0.5 mm 0.00 in0.0 mm 0.06 in1.5 mm
10:20 AM 42.1°F5.6°C 40.2°F4.6°C 93% 11.0 mph NNE17.7 kmh NNE 21.0 mph33.8 kmh 29.39 in995.3 mb 0.02 in0.5 mm 0.00 in0.0 mm 0.06 in1.5 mm
10:10 AM 42.1°F5.6°C 40.2°F4.6°C 93% 10.0 mph NNE16.1 kmh NNE 26.0 mph41.8 kmh 29.39 in995.3 mb 0.02 in0.5 mm 0.06 in1.5 mm 0.06 in1.5 mm
10:00 AM 42.1°F5.6°C 40.2°F4.6°C 93% 10.0 mph NNE16.1 kmh NNE 20.0 mph32.2 kmh 29.39 in995.3 mb 0.01 in0.3 mm 0.00 in0.0 mm 0.05 in1.3 mm
09:50 AM 41.9°F5.5°C 40.0°F4.4°C 93% 11.0 mph NE17.7 kmh NE 21.0 mph33.8 kmh 29.39 in995.3 mb 0.01 in0.3 mm 0.06 in1.5 mm 0.05 in1.3 mm
09:40 AM 41.9°F5.5°C 40.0°F4.4°C 93% 10.0 mph NE16.1 kmh NE 23.0 mph37.0 kmh 29.38 in994.9 mb 0.00 in0.0 mm 0.00 in0.0 mm 0.04 in1.0 mm
09:30 AM 41.9°F5.5°C 40.0°F4.4°C 93% 9.0 mph NE14.5 kmh NE 19.0 mph30.6 kmh 29.38 in994.9 mb 0.00 in0.0 mm 0.00 in0.0 mm 0.04 in1.0 mm
09:20 AM 41.9°F5.5°C 40.0°F4.4°C 93% 10.0 mph NNE16.1 kmh NNE 17.0 mph27.4 kmh 29.37 in994.6 mb 0.00 in0.0 mm 0.00 in0.0 mm 0.04 in1.0 mm
09:10 AM 41.9°F5.5°C 40.0°F4.4°C 93% 10.0 mph NNE16.1 kmh NNE 21.0 mph33.8 kmh 29.37 in994.6 mb 0.00 in0.0 mm 0.00 in0.0 mm 0.04 in1.0 mm
09:00 AM 42.1°F5.6°C 40.2°F4.6°C 93% 10.0 mph NE16.1 kmh NE 20.0 mph32.2 kmh 29.37 in994.6 mb 0.00 in0.0 mm 0.00 in0.0 mm 0.04 in1.0 mm
08:50 AM 42.1°F5.6°C 39.9°F4.4°C 92% 10.0 mph NE16.1 kmh NE 21.0 mph33.8 kmh 29.36 in994.2 mb 0.01 in0.3 mm 0.00 in0.0 mm 0.04 in1.0 mm
08:40 AM 42.1°F5.6°C 39.9°F4.4°C 92% 10.0 mph NE16.1 kmh NE 22.0 mph35.4 kmh 29.36 in994.2 mb 0.01 in0.3 mm 0.00 in0.0 mm 0.04 in1.0 mm
08:30 AM 42.3°F5.7°C 40.4°F4.7°C 93% 9.0 mph NE14.5 kmh NE 19.0 mph30.6 kmh 29.36 in994.2 mb 0.01 in0.3 mm 0.00 in0.0 mm 0.04 in1.0 mm
08:20 AM 42.3°F5.7°C 40.1°F4.5°C 92% 11.0 mph NE17.7 kmh NE 18.0 mph29.0 kmh 29.35 in993.9 mb 0.02 in0.5 mm 0.00 in0.0 mm 0.04 in1.0 mm
08:10 AM 42.1°F5.6°C 39.9°F4.4°C 92% 10.0 mph NE16.1 kmh NE 20.0 mph32.2 kmh 29.35 in993.9 mb 0.02 in0.5 mm 0.00 in0.0 mm 0.04 in1.0 mm
08:00 AM 42.1°F5.6°C 39.9°F4.4°C 92% 10.0 mph NE16.1 kmh NE 20.0 mph32.2 kmh 29.35 in993.9 mb 0.02 in0.5 mm 0.00 in0.0 mm 0.04 in1.0 mm
07:50 AM 42.1°F5.6°C 39.9°F4.4°C 92% 10.0 mph NE16.1 kmh NE 24.0 mph38.6 kmh 29.34 in993.6 mb 0.02 in0.5 mm 0.00 in0.0 mm 0.03 in0.8 mm
07:40 AM 42.3°F5.7°C 40.1°F4.5°C 92% 10.0 mph NE16.1 kmh NE 21.0 mph33.8 kmh 29.34 in993.6 mb 0.02 in0.5 mm 0.00 in0.0 mm 0.03 in0.8 mm
07:30 AM 42.3°F5.7°C 40.1°F4.5°C 92% 11.0 mph NE17.7 kmh NE 22.0 mph35.4 kmh 29.34 in993.6 mb 0.02 in0.5 mm 0.06 in1.5 mm 0.03 in0.8 mm
07:20 AM 42.3°F5.7°C 40.1°F4.5°C 92% 9.0 mph NE14.5 kmh NE 23.0 mph37.0 kmh 29.34 in993.6 mb 0.01 in0.3 mm 0.06 in1.5 mm 0.02 in0.5 mm
07:10 AM 42.1°F5.6°C 39.9°F4.4°C 92% 9.0 mph NE14.5 kmh NE 19.0 mph30.6 kmh 29.33 in993.2 mb 0.00 in0.0 mm 0.00 in0.0 mm 0.02 in0.5 mm
07:00 AM 42.1°F5.6°C 39.9°F4.4°C 92% 10.0 mph NE16.1 kmh NE 18.0 mph29.0 kmh 29.33 in993.2 mb 0.00 in0.0 mm 0.00 in0.0 mm 0.02 in0.5 mm
06:50 AM 42.1°F5.6°C 39.9°F4.4°C 92% 10.0 mph NE16.1 kmh NE 24.0 mph38.6 kmh 29.33 in993.2 mb 0.00 in0.0 mm 0.00 in0.0 mm 0.02 in0.5 mm
06:40 AM 42.3°F5.7°C 40.1°F4.5°C 92% 9.0 mph NE14.5 kmh NE 22.0 mph35.4 kmh 29.32 in992.9 mb 0.00 in0.0 mm 0.00 in0.0 mm 0.02 in0.5 mm
06:30 AM 42.3°F5.7°C 40.1°F4.5°C 92% 10.0 mph NE16.1 kmh NE 21.0 mph33.8 kmh 29.32 in992.9 mb 0.00 in0.0 mm 0.00 in0.0 mm 0.02 in0.5 mm
06:20 AM 42.1°F5.6°C 39.9°F4.4°C 92% 10.0 mph NE16.1 kmh NE 19.0 mph30.6 kmh 29.31 in992.6 mb 0.00 in0.0 mm 0.00 in0.0 mm 0.02 in0.5 mm
06:10 AM 42.1°F5.6°C 39.9°F4.4°C 92% 10.0 mph NE16.1 kmh NE 21.0 mph33.8 kmh 29.31 in992.6 mb 0.00 in0.0 mm 0.00 in0.0 mm 0.02 in0.5 mm
06:00 AM 42.1°F5.6°C 39.9°F4.4°C 92% 9.0 mph NE14.5 kmh NE 18.0 mph29.0 kmh 29.31 in992.6 mb 0.00 in0.0 mm 0.00 in0.0 mm 0.02 in0.5 mm
05:50 AM 42.1°F5.6°C 39.9°F4.4°C 92% 9.0 mph NE14.5 kmh NE 18.0 mph29.0 kmh 29.31 in992.6 mb 0.00 in0.0 mm 0.00 in0.0 mm 0.02 in0.5 mm
05:40 AM 42.1°F5.6°C 39.9°F4.4°C 92% 9.0 mph NE14.5 kmh NE 16.0 mph25.7 kmh 29.30 in992.2 mb 0.00 in0.0 mm 0.00 in0.0 mm 0.02 in0.5 mm
05:30 AM 41.9°F5.5°C 39.7°F4.3°C 92% 10.0 mph NE16.1 kmh NE 18.0 mph29.0 kmh 29.29 in991.9 mb 0.00 in0.0 mm 0.00 in0.0 mm 0.02 in0.5 mm
05:20 AM 41.7°F5.4°C 39.6°F4.2°C 92% 9.0 mph NE14.5 kmh NE 19.0 mph30.6 kmh 29.29 in991.9 mb 0.00 in0.0 mm 0.00 in0.0 mm 0.02 in0.5 mm
05:10 AM 41.5°F5.3°C 39.4°F4.1°C 92% 9.0 mph NE14.5 kmh NE 17.0 mph27.4 kmh 29.29 in991.9 mb 0.00 in0.0 mm 0.00 in0.0 mm 0.02 in0.5 mm
05:00 AM 41.4°F5.2°C 39.2°F4.0°C 92% 10.0 mph NE16.1 kmh NE 19.0 mph30.6 kmh 29.29 in991.9 mb 0.00 in0.0 mm 0.00 in0.0 mm 0.02 in0.5 mm
04:50 AM 41.4°F5.2°C 39.2°F4.0°C 92% 10.0 mph NE16.1 kmh NE 18.0 mph29.0 kmh 29.28 in991.5 mb 0.01 in0.3 mm 0.00 in0.0 mm 0.02 in0.5 mm
04:40 AM 41.4°F5.2°C 39.2°F4.0°C 92% 11.0 mph NE17.7 kmh NE 19.0 mph30.6 kmh 29.28 in991.5 mb 0.01 in0.3 mm 0.00 in0.0 mm 0.02 in0.5 mm
04:30 AM 41.4°F5.2°C 39.2°F4.0°C 92% 11.0 mph NE17.7 kmh NE 21.0 mph33.8 kmh 29.28 in991.5 mb 0.01 in0.3 mm 0.00 in0.0 mm 0.02 in0.5 mm
04:20 AM 41.2°F5.1°C 39.0°F3.9°C 92% 11.0 mph NE17.7 kmh NE 22.0 mph35.4 kmh 29.27 in991.2 mb 0.01 in0.3 mm 0.00 in0.0 mm 0.02 in0.5 mm
04:10 AM 40.8°F4.9°C 38.4°F3.6°C 91% 10.0 mph NE16.1 kmh NE 23.0 mph37.0 kmh 29.27 in991.2 mb 0.01 in0.3 mm 0.00 in0.0 mm 0.02 in0.5 mm
04:00 AM 41.0°F5.0°C 38.6°F3.7°C 91% 11.0 mph NE17.7 kmh NE 20.0 mph32.2 kmh 29.26 in990.9 mb 0.01 in0.3 mm 0.01 in0.3 mm 0.02 in0.5 mm
03:50 AM 41.0°F5.0°C 38.6°F3.7°C 91% 10.0 mph NE16.1 kmh NE 21.0 mph33.8 kmh 29.26 in990.9 mb 0.00 in0.0 mm 0.00 in0.0 mm 0.01 in0.3 mm
03:40 AM 40.6°F4.8°C 38.2°F3.4°C 91% 10.0 mph NE16.1 kmh NE 20.0 mph32.2 kmh 29.26 in990.9 mb 0.00 in0.0 mm 0.00 in0.0 mm 0.01 in0.3 mm
03:30 AM 40.5°F4.7°C 38.0°F3.3°C 91% 9.0 mph NE14.5 kmh NE 18.0 mph29.0 kmh 29.25 in990.5 mb 0.00 in0.0 mm 0.00 in0.0 mm 0.01 in0.3 mm
03:20 AM 40.5°F4.7°C 38.0°F3.3°C 91% 10.0 mph NE16.1 kmh NE 17.0 mph27.4 kmh 29.25 in990.5 mb 0.00 in0.0 mm 0.00 in0.0 mm 0.01 in0.3 mm
03:10 AM 40.3°F4.6°C 37.9°F3.3°C 91% 10.0 mph NE16.1 kmh NE 19.0 mph30.6 kmh 29.25 in990.5 mb 0.00 in0.0 mm 0.00 in0.0 mm 0.01 in0.3 mm
03:00 AM 39.9°F4.4°C 37.5°F3.1°C 91% 10.0 mph NE16.1 kmh NE 18.0 mph29.0 kmh 29.25 in990.5 mb 0.00 in0.0 mm 0.00 in0.0 mm 0.01 in0.3 mm
02:50 AM 39.7°F4.3°C 37.3°F2.9°C 91% 9.0 mph NE14.5 kmh NE 21.0 mph33.8 kmh 29.25 in990.5 mb 0.00 in0.0 mm 0.00 in0.0 mm 0.01 in0.3 mm
02:40 AM 39.7°F4.3°C 37.0°F2.8°C 90% 9.0 mph NE14.5 kmh NE 17.0 mph27.4 kmh 29.25 in990.5 mb 0.00 in0.0 mm 0.00 in0.0 mm 0.01 in0.3 mm
02:30 AM 39.9°F4.4°C 37.2°F2.9°C 90% 10.0 mph NE16.1 kmh NE 17.0 mph27.4 kmh 29.25 in990.5 mb 0.00 in0.0 mm 0.00 in0.0 mm 0.01 in0.3 mm
02:20 AM 40.1°F4.5°C 37.4°F3.0°C 90% 9.0 mph NE14.5 kmh NE 17.0 mph27.4 kmh 29.25 in990.5 mb 0.00 in0.0 mm 0.00 in0.0 mm 0.01 in0.3 mm
02:10 AM 40.5°F4.7°C 37.8°F3.2°C 90% 10.0 mph NE16.1 kmh NE 15.0 mph24.1 kmh 29.25 in990.5 mb 0.00 in0.0 mm 0.00 in0.0 mm 0.01 in0.3 mm
02:00 AM 40.5°F4.7°C 37.8°F3.2°C 90% 9.0 mph NE14.5 kmh NE 18.0 mph29.0 kmh 29.24 in990.2 mb 0.00 in0.0 mm 0.00 in0.0 mm 0.01 in0.3 mm
01:50 AM 40.5°F4.7°C 37.8°F3.2°C 90% 10.0 mph ENE16.1 kmh ENE 17.0 mph27.4 kmh 29.24 in990.2 mb 0.00 in0.0 mm 0.00 in0.0 mm 0.01 in0.3 mm
01:40 AM 40.5°F4.7°C 37.8°F3.2°C 90% 10.0 mph ENE16.1 kmh ENE 19.0 mph30.6 kmh 29.24 in990.2 mb 0.00 in0.0 mm 0.00 in0.0 mm 0.01 in0.3 mm
01:30 AM 40.5°F4.7°C 37.8°F3.2°C 90% 10.0 mph NE16.1 kmh NE 21.0 mph33.8 kmh 29.24 in990.2 mb 0.00 in0.0 mm 0.00 in0.0 mm 0.01 in0.3 mm
01:20 AM 40.3°F4.6°C 37.6°F3.1°C 90% 8.0 mph NE12.9 kmh NE 19.0 mph30.6 kmh 29.24 in990.2 mb 0.01 in0.3 mm 0.00 in0.0 mm 0.01 in0.3 mm
01:10 AM 40.3°F4.6°C 37.6°F3.1°C 90% 8.0 mph ENE12.9 kmh ENE 16.0 mph25.7 kmh 29.23 in989.8 mb 0.01 in0.3 mm 0.00 in0.0 mm 0.01 in0.3 mm
01:00 AM 40.5°F4.7°C 37.8°F3.2°C 90% 8.0 mph NE12.9 kmh NE 16.0 mph25.7 kmh 29.23 in989.8 mb 0.01 in0.3 mm 0.00 in0.0 mm 0.01 in0.3 mm
12:50 AM 40.6°F4.8°C 37.7°F3.2°C 89% 10.0 mph ENE16.1 kmh ENE 15.0 mph24.1 kmh 29.23 in989.8 mb 0.01 in0.3 mm 0.00 in0.0 mm 0.01 in0.3 mm
12:40 AM 40.6°F4.8°C 37.7°F3.2°C 89% 10.0 mph ENE16.1 kmh ENE 17.0 mph27.4 kmh 29.23 in989.8 mb 0.01 in0.3 mm 0.00 in0.0 mm 0.01 in0.3 mm
12:30 AM 41.0°F5.0°C 38.0°F3.3°C 89% 9.0 mph ENE14.5 kmh ENE 17.0 mph27.4 kmh 29.23 in989.8 mb 0.01 in0.3 mm 0.06 in1.5 mm 0.01 in0.3 mm
12:20 AM 41.2°F5.1°C 37.9°F3.3°C 88% 10.0 mph ENE16.1 kmh ENE 17.0 mph27.4 kmh 29.23 in989.8 mb 0.00 in0.0 mm 0.00 in0.0 mm 0.00 in0.0 mm
12:10 AM 41.4°F5.2°C 38.1°F3.4°C 88% 10.0 mph E16.1 kmh E 18.0 mph29.0 kmh 29.23 in989.8 mb 0.00 in0.0 mm 0.00 in0.0 mm 0.00 in0.0 mm
12:00 AM 41.2°F5.1°C 37.9°F3.3°C 88% 9.0 mph E14.5 kmh E 15.0 mph24.1 kmh 29.23 in989.8 mb 0.00 in0.0 mm 0.00 in0.0 mm 0.00 in0.0 mm